sensor_id;sensor_type;location;lat;lon;timestamp;P1;durP1;ratioP1;P2;durP2;ratioP2
22064;SDS011;11197;53.110;8.468;2023-11-21T00:00:00;29.35;;;14.45;;
22064;SDS011;11197;53.110;8.468;2023-11-21T00:02:26;33.03;;;15.45;;
22064;SDS011;11197;53.110;8.468;2023-11-21T00:04:53;28.83;;;15.00;;
22064;SDS011;11197;53.110;8.468;2023-11-21T00:07:19;29.23;;;14.65;;
22064;SDS011;11197;53.110;8.468;2023-11-21T00:09:46;41.55;;;16.10;;
22064;SDS011;11197;53.110;8.468;2023-11-21T00:12:12;31.02;;;15.73;;
22064;SDS011;11197;53.110;8.468;2023-11-21T00:14:39;53.85;;;27.05;;
22064;SDS011;11197;53.110;8.468;2023-11-21T00:17:05;35.40;;;18.45;;
22064;SDS011;11197;53.110;8.468;2023-11-21T00:19:31;41.50;;;23.27;;
22064;SDS011;11197;53.110;8.468;2023-11-21T00:21:58;31.15;;;17.23;;
22064;SDS011;11197;53.110;8.468;2023-11-21T00:24:24;30.05;;;16.73;;
22064;SDS011;11197;53.110;8.468;2023-11-21T00:26:51;28.67;;;15.43;;
22064;SDS011;11197;53.110;8.468;2023-11-21T00:29:18;31.23;;;14.38;;
22064;SDS011;11197;53.110;8.468;2023-11-21T00:31:44;30.48;;;16.15;;
22064;SDS011;11197;53.110;8.468;2023-11-21T00:34:11;29.80;;;15.43;;
22064;SDS011;11197;53.110;8.468;2023-11-21T00:36:37;25.88;;;13.52;;
22064;SDS011;11197;53.110;8.468;2023-11-21T00:39:04;24.55;;;12.93;;
22064;SDS011;11197;53.110;8.468;2023-11-21T00:41:31;29.17;;;12.82;;
22064;SDS011;11197;53.110;8.468;2023-11-21T00:43:57;26.83;;;13.20;;
22064;SDS011;11197;53.110;8.468;2023-11-21T00:46:24;31.55;;;13.13;;
22064;SDS011;11197;53.110;8.468;2023-11-21T00:48:52;24.55;;;12.55;;
22064;SDS011;11197;53.110;8.468;2023-11-21T00:51:19;28.17;;;12.73;;
22064;SDS011;11197;53.110;8.468;2023-11-21T00:53:45;23.67;;;12.20;;
22064;SDS011;11197;53.110;8.468;2023-11-21T00:56:12;29.27;;;12.30;;
22064;SDS011;11197;53.110;8.468;2023-11-21T00:58:38;24.40;;;12.07;;
22064;SDS011;11197;53.110;8.468;2023-11-21T01:01:07;24.25;;;11.68;;
22064;SDS011;11197;53.110;8.468;2023-11-21T01:03:33;27.95;;;12.05;;
22064;SDS011;11197;53.110;8.468;2023-11-21T01:05:59;22.92;;;12.57;;
22064;SDS011;11197;53.110;8.468;2023-11-21T01:08:24;27.92;;;12.50;;
22064;SDS011;11197;53.110;8.468;2023-11-21T01:10:50;25.38;;;11.95;;
22064;SDS011;11197;53.110;8.468;2023-11-21T01:13:16;26.10;;;11.50;;
22064;SDS011;11197;53.110;8.468;2023-11-21T01:15:42;25.50;;;11.95;;
22064;SDS011;11197;53.110;8.468;2023-11-21T01:18:08;29.00;;;12.43;;
22064;SDS011;11197;53.110;8.468;2023-11-21T01:20:34;24.10;;;11.75;;
22064;SDS011;11197;53.110;8.468;2023-11-21T01:23:00;25.83;;;12.35;;
22064;SDS011;11197;53.110;8.468;2023-11-21T01:25:26;21.55;;;11.60;;
22064;SDS011;11197;53.110;8.468;2023-11-21T01:27:52;22.75;;;11.52;;
22064;SDS011;11197;53.110;8.468;2023-11-21T01:30:18;25.50;;;12.40;;
22064;SDS011;11197;53.110;8.468;2023-11-21T01:32:43;23.35;;;11.00;;
22064;SDS011;11197;53.110;8.468;2023-11-21T01:35:09;24.10;;;11.60;;
22064;SDS011;11197;53.110;8.468;2023-11-21T01:37:38;21.05;;;11.05;;
22064;SDS011;11197;53.110;8.468;2023-11-21T01:40:04;26.63;;;12.13;;
22064;SDS011;11197;53.110;8.468;2023-11-21T01:42:35;23.50;;;11.70;;
22064;SDS011;11197;53.110;8.468;2023-11-21T01:45:00;21.35;;;11.70;;
22064;SDS011;11197;53.110;8.468;2023-11-21T01:47:33;26.13;;;12.95;;
22064;SDS011;11197;53.110;8.468;2023-11-21T01:52:27;25.80;;;13.00;;
22064;SDS011;11197;53.110;8.468;2023-11-21T01:54:54;20.80;;;11.80;;
22064;SDS011;11197;53.110;8.468;2023-11-21T01:57:20;23.80;;;12.13;;
22064;SDS011;11197;53.110;8.468;2023-11-21T01:59:46;23.00;;;12.10;;
22064;SDS011;11197;53.110;8.468;2023-11-21T02:02:14;20.00;;;11.90;;
22064;SDS011;11197;53.110;8.468;2023-11-21T02:04:40;27.63;;;12.93;;
22064;SDS011;11197;53.110;8.468;2023-11-21T02:07:06;20.48;;;11.60;;
22064;SDS011;11197;53.110;8.468;2023-11-21T02:09:32;22.60;;;12.43;;
22064;SDS011;11197;53.110;8.468;2023-11-21T02:11:59;24.02;;;12.80;;
22064;SDS011;11197;53.110;8.468;2023-11-21T02:14:26;25.05;;;12.40;;
22064;SDS011;11197;53.110;8.468;2023-11-21T02:16:53;23.02;;;12.30;;
22064;SDS011;11197;53.110;8.468;2023-11-21T02:19:21;24.80;;;13.00;;
22064;SDS011;11197;53.110;8.468;2023-11-21T02:21:55;24.63;;;12.50;;
22064;SDS011;11197;53.110;8.468;2023-11-21T02:24:24;31.40;;;14.00;;
22064;SDS011;11197;53.110;8.468;2023-11-21T02:26:50;25.88;;;12.25;;
22064;SDS011;11197;53.110;8.468;2023-11-21T02:29:19;25.48;;;12.52;;
22064;SDS011;11197;53.110;8.468;2023-11-21T02:31:53;32.35;;;14.40;;
22064;SDS011;11197;53.110;8.468;2023-11-21T02:34:20;31.98;;;14.30;;
22064;SDS011;11197;53.110;8.468;2023-11-21T02:36:47;34.38;;;14.27;;
22064;SDS011;11197;53.110;8.468;2023-11-21T02:39:16;27.42;;;14.10;;
22064;SDS011;11197;53.110;8.468;2023-11-21T02:41:43;32.58;;;13.23;;
22064;SDS011;11197;53.110;8.468;2023-11-21T02:44:09;25.17;;;12.75;;
22064;SDS011;11197;53.110;8.468;2023-11-21T02:46:36;24.48;;;12.93;;
22064;SDS011;11197;53.110;8.468;2023-11-21T02:49:02;28.80;;;12.15;;
22064;SDS011;11197;53.110;8.468;2023-11-21T02:51:29;21.83;;;12.52;;
22064;SDS011;11197;53.110;8.468;2023-11-21T02:53:55;25.42;;;12.07;;
22064;SDS011;11197;53.110;8.468;2023-11-21T02:56:27;27.13;;;11.93;;
22064;SDS011;11197;53.110;8.468;2023-11-21T02:58:55;29.83;;;13.20;;
22064;SDS011;11197;53.110;8.468;2023-11-21T03:01:21;28.58;;;13.65;;
22064;SDS011;11197;53.110;8.468;2023-11-21T03:03:49;27.42;;;14.23;;
22064;SDS011;11197;53.110;8.468;2023-11-21T03:06:19;33.55;;;16.73;;
22064;SDS011;11197;53.110;8.468;2023-11-21T03:08:45;28.05;;;14.68;;
22064;SDS011;11197;53.110;8.468;2023-11-21T03:11:11;28.35;;;13.88;;
22064;SDS011;11197;53.110;8.468;2023-11-21T03:13:41;24.50;;;12.88;;
22064;SDS011;11197;53.110;8.468;2023-11-21T03:16:08;29.33;;;14.82;;
22064;SDS011;11197;53.110;8.468;2023-11-21T03:18:34;28.95;;;15.75;;
22064;SDS011;11197;53.110;8.468;2023-11-21T03:21:01;29.75;;;14.50;;
22064;SDS011;11197;53.110;8.468;2023-11-21T03:23:27;26.95;;;13.75;;
22064;SDS011;11197;53.110;8.468;2023-11-21T03:25:53;26.27;;;14.00;;
22064;SDS011;11197;53.110;8.468;2023-11-21T03:28:19;25.08;;;13.95;;
22064;SDS011;11197;53.110;8.468;2023-11-21T03:30:45;26.52;;;14.02;;
22064;SDS011;11197;53.110;8.468;2023-11-21T03:33:10;27.02;;;12.52;;
22064;SDS011;11197;53.110;8.468;2023-11-21T03:35:37;24.20;;;13.30;;
22064;SDS011;11197;53.110;8.468;2023-11-21T03:38:03;23.27;;;12.80;;
22064;SDS011;11197;53.110;8.468;2023-11-21T03:40:29;23.80;;;13.35;;
22064;SDS011;11197;53.110;8.468;2023-11-21T03:42:56;25.27;;;12.90;;
22064;SDS011;11197;53.110;8.468;2023-11-21T03:45:22;26.50;;;13.05;;
22064;SDS011;11197;53.110;8.468;2023-11-21T03:47:48;25.85;;;14.00;;
22064;SDS011;11197;53.110;8.468;2023-11-21T03:50:14;26.13;;;13.82;;
22064;SDS011;11197;53.110;8.468;2023-11-21T03:52:42;23.48;;;13.75;;
22064;SDS011;11197;53.110;8.468;2023-11-21T03:55:08;28.15;;;14.38;;
22064;SDS011;11197;53.110;8.468;2023-11-21T03:57:35;26.45;;;14.35;;
22064;SDS011;11197;53.110;8.468;2023-11-21T04:00:03;26.52;;;13.95;;
22064;SDS011;11197;53.110;8.468;2023-11-21T04:02:37;25.38;;;14.65;;
22064;SDS011;11197;53.110;8.468;2023-11-21T04:05:03;26.20;;;14.52;;
22064;SDS011;11197;53.110;8.468;2023-11-21T04:07:30;26.63;;;14.55;;
22064;SDS011;11197;53.110;8.468;2023-11-21T04:09:55;29.83;;;14.85;;
22064;SDS011;11197;53.110;8.468;2023-11-21T04:12:21;30.00;;;15.10;;
22064;SDS011;11197;53.110;8.468;2023-11-21T04:14:47;30.45;;;15.20;;
22064;SDS011;11197;53.110;8.468;2023-11-21T04:17:13;27.67;;;14.40;;
22064;SDS011;11197;53.110;8.468;2023-11-21T04:19:38;30.48;;;14.80;;
22064;SDS011;11197;53.110;8.468;2023-11-21T04:22:04;27.77;;;15.23;;
22064;SDS011;11197;53.110;8.468;2023-11-21T04:24:30;31.15;;;15.25;;
22064;SDS011;11197;53.110;8.468;2023-11-21T04:26:56;28.73;;;15.02;;
22064;SDS011;11197;53.110;8.468;2023-11-21T04:29:22;29.08;;;15.15;;
22064;SDS011;11197;53.110;8.468;2023-11-21T04:31:47;29.60;;;15.05;;
22064;SDS011;11197;53.110;8.468;2023-11-21T04:34:14;30.45;;;16.45;;
22064;SDS011;11197;53.110;8.468;2023-11-21T04:36:40;26.55;;;15.43;;
22064;SDS011;11197;53.110;8.468;2023-11-21T04:39:05;30.67;;;16.10;;
22064;SDS011;11197;53.110;8.468;2023-11-21T04:41:32;26.95;;;15.30;;
22064;SDS011;11197;53.110;8.468;2023-11-21T04:43:58;29.20;;;16.30;;
22064;SDS011;11197;53.110;8.468;2023-11-21T04:46:26;30.67;;;16.58;;
22064;SDS011;11197;53.110;8.468;2023-11-21T04:48:51;32.10;;;16.45;;
22064;SDS011;11197;53.110;8.468;2023-11-21T04:51:17;30.55;;;17.00;;
22064;SDS011;11197;53.110;8.468;2023-11-21T04:53:43;30.83;;;18.63;;
22064;SDS011;11197;53.110;8.468;2023-11-21T04:58:50;33.30;;;19.00;;
22064;SDS011;11197;53.110;8.468;2023-11-21T05:01:16;33.42;;;18.58;;
22064;SDS011;11197;53.110;8.468;2023-11-21T05:03:41;30.13;;;18.60;;
22064;SDS011;11197;53.110;8.468;2023-11-21T05:06:09;31.25;;;18.83;;
22064;SDS011;11197;53.110;8.468;2023-11-21T05:08:35;32.78;;;19.02;;
22064;SDS011;11197;53.110;8.468;2023-11-21T05:13:53;29.00;;;17.98;;
22064;SDS011;11197;53.110;8.468;2023-11-21T05:16:21;28.85;;;18.10;;
22064;SDS011;11197;53.110;8.468;2023-11-21T05:18:47;25.17;;;17.45;;
22064;SDS011;11197;53.110;8.468;2023-11-21T05:21:15;28.23;;;18.15;;
22064;SDS011;11197;53.110;8.468;2023-11-21T05:23:41;27.52;;;17.65;;
22064;SDS011;11197;53.110;8.468;2023-11-21T05:26:07;28.50;;;18.10;;
22064;SDS011;11197;53.110;8.468;2023-11-21T05:28:33;23.90;;;17.10;;
22064;SDS011;11197;53.110;8.468;2023-11-21T05:30:58;24.90;;;16.27;;
22064;SDS011;11197;53.110;8.468;2023-11-21T05:33:24;24.63;;;17.35;;
22064;SDS011;11197;53.110;8.468;2023-11-21T05:35:50;25.13;;;15.95;;
22064;SDS011;11197;53.110;8.468;2023-11-21T05:38:16;21.10;;;15.52;;
22064;SDS011;11197;53.110;8.468;2023-11-21T05:40:42;24.27;;;16.88;;
22064;SDS011;11197;53.110;8.468;2023-11-21T05:43:09;24.60;;;17.48;;
22064;SDS011;11197;53.110;8.468;2023-11-21T05:45:35;23.65;;;17.15;;
22064;SDS011;11197;53.110;8.468;2023-11-21T05:48:01;27.05;;;18.17;;
22064;SDS011;11197;53.110;8.468;2023-11-21T05:50:27;28.63;;;18.10;;
22064;SDS011;11197;53.110;8.468;2023-11-21T05:52:53;23.67;;;16.55;;
22064;SDS011;11197;53.110;8.468;2023-11-21T05:55:22;23.67;;;15.80;;
22064;SDS011;11197;53.110;8.468;2023-11-21T05:57:50;21.02;;;15.30;;
22064;SDS011;11197;53.110;8.468;2023-11-21T06:00:16;19.17;;;14.05;;
22064;SDS011;11197;53.110;8.468;2023-11-21T06:02:47;18.45;;;13.68;;
22064;SDS011;11197;53.110;8.468;2023-11-21T06:05:15;19.55;;;13.60;;
22064;SDS011;11197;53.110;8.468;2023-11-21T06:07:43;21.00;;;13.68;;
22064;SDS011;11197;53.110;8.468;2023-11-21T06:10:10;18.92;;;12.60;;
22064;SDS011;11197;53.110;8.468;2023-11-21T06:12:38;18.65;;;11.95;;
22064;SDS011;11197;53.110;8.468;2023-11-21T06:15:05;19.08;;;11.70;;
22064;SDS011;11197;53.110;8.468;2023-11-21T06:17:34;13.48;;;10.50;;
22064;SDS011;11197;53.110;8.468;2023-11-21T06:20:05;14.07;;;9.70;;
22064;SDS011;11197;53.110;8.468;2023-11-21T06:22:41;15.45;;;10.30;;
22064;SDS011;11197;53.110;8.468;2023-11-21T06:25:08;16.48;;;9.40;;
22064;SDS011;11197;53.110;8.468;2023-11-21T06:27:37;13.20;;;8.95;;
22064;SDS011;11197;53.110;8.468;2023-11-21T06:30:04;10.85;;;7.75;;
22064;SDS011;11197;53.110;8.468;2023-11-21T06:32:32;12.30;;;7.55;;
22064;SDS011;11197;53.110;8.468;2023-11-21T06:34:58;11.52;;;8.18;;
22064;SDS011;11197;53.110;8.468;2023-11-21T06:37:27;10.75;;;7.85;;
22064;SDS011;11197;53.110;8.468;2023-11-21T06:39:53;11.07;;;7.90;;
22064;SDS011;11197;53.110;8.468;2023-11-21T06:42:19;11.23;;;8.30;;
22064;SDS011;11197;53.110;8.468;2023-11-21T06:44:46;10.57;;;8.07;;
22064;SDS011;11197;53.110;8.468;2023-11-21T06:47:13;10.30;;;7.22;;
22064;SDS011;11197;53.110;8.468;2023-11-21T06:49:39;11.70;;;7.90;;
22064;SDS011;11197;53.110;8.468;2023-11-21T06:52:05;11.35;;;7.72;;
22064;SDS011;11197;53.110;8.468;2023-11-21T06:54:31;10.55;;;7.50;;
22064;SDS011;11197;53.110;8.468;2023-11-21T06:56:57;9.85;;;7.28;;
22064;SDS011;11197;53.110;8.468;2023-11-21T06:59:23;11.02;;;7.28;;
22064;SDS011;11197;53.110;8.468;2023-11-21T07:01:50;10.75;;;7.05;;
22064;SDS011;11197;53.110;8.468;2023-11-21T07:04:16;10.00;;;6.95;;
22064;SDS011;11197;53.110;8.468;2023-11-21T07:06:41;11.20;;;7.15;;
22064;SDS011;11197;53.110;8.468;2023-11-21T07:09:08;9.73;;;7.03;;
22064;SDS011;11197;53.110;8.468;2023-11-21T07:11:34;12.95;;;7.70;;
22064;SDS011;11197;53.110;8.468;2023-11-21T07:14:00;12.77;;;7.30;;
22064;SDS011;11197;53.110;8.468;2023-11-21T07:16:34;10.45;;;7.43;;
22064;SDS011;11197;53.110;8.468;2023-11-21T07:19:02;10.60;;;7.35;;
22064;SDS011;11197;53.110;8.468;2023-11-21T07:21:33;10.32;;;7.40;;
22064;SDS011;11197;53.110;8.468;2023-11-21T07:24:01;10.40;;;7.40;;
22064;SDS011;11197;53.110;8.468;2023-11-21T07:26:27;11.15;;;7.75;;
22064;SDS011;11197;53.110;8.468;2023-11-21T07:28:53;10.60;;;7.82;;
22064;SDS011;11197;53.110;8.468;2023-11-21T07:31:19;10.77;;;7.78;;
22064;SDS011;11197;53.110;8.468;2023-11-21T07:33:46;14.63;;;7.95;;
22064;SDS011;11197;53.110;8.468;2023-11-21T07:36:12;10.90;;;8.18;;
22064;SDS011;11197;53.110;8.468;2023-11-21T07:38:39;14.90;;;8.43;;
22064;SDS011;11197;53.110;8.468;2023-11-21T07:41:05;13.13;;;8.00;;
22064;SDS011;11197;53.110;8.468;2023-11-21T07:43:33;12.00;;;8.88;;
22064;SDS011;11197;53.110;8.468;2023-11-21T07:46:03;11.93;;;7.95;;
22064;SDS011;11197;53.110;8.468;2023-11-21T07:48:30;12.95;;;8.05;;
22064;SDS011;11197;53.110;8.468;2023-11-21T07:50:56;12.23;;;8.20;;
22064;SDS011;11197;53.110;8.468;2023-11-21T07:53:24;12.07;;;8.52;;
22064;SDS011;11197;53.110;8.468;2023-11-21T07:56:04;13.23;;;9.00;;
22064;SDS011;11197;53.110;8.468;2023-11-21T07:58:31;12.65;;;8.20;;
22064;SDS011;11197;53.110;8.468;2023-11-21T08:00:58;13.80;;;8.93;;
22064;SDS011;11197;53.110;8.468;2023-11-21T08:03:25;13.65;;;9.50;;
22064;SDS011;11197;53.110;8.468;2023-11-21T08:05:57;13.10;;;8.85;;
22064;SDS011;11197;53.110;8.468;2023-11-21T08:08:28;12.70;;;8.70;;
22064;SDS011;11197;53.110;8.468;2023-11-21T08:10:54;15.65;;;9.20;;
22064;SDS011;11197;53.110;8.468;2023-11-21T08:13:26;13.55;;;9.10;;
22064;SDS011;11197;53.110;8.468;2023-11-21T08:15:56;13.00;;;9.23;;
22064;SDS011;11197;53.110;8.468;2023-11-21T08:18:26;12.30;;;9.05;;
22064;SDS011;11197;53.110;8.468;2023-11-21T08:20:53;13.82;;;9.60;;
22064;SDS011;11197;53.110;8.468;2023-11-21T08:23:20;14.95;;;9.48;;
22064;SDS011;11197;53.110;8.468;2023-11-21T08:25:46;13.68;;;9.63;;
22064;SDS011;11197;53.110;8.468;2023-11-21T08:28:12;13.95;;;9.55;;
22064;SDS011;11197;53.110;8.468;2023-11-21T08:30:39;13.15;;;8.98;;
22064;SDS011;11197;53.110;8.468;2023-11-21T08:33:06;15.27;;;9.35;;
22064;SDS011;11197;53.110;8.468;2023-11-21T08:35:33;14.75;;;9.55;;
22064;SDS011;11197;53.110;8.468;2023-11-21T08:37:59;14.93;;;9.77;;
22064;SDS011;11197;53.110;8.468;2023-11-21T08:40:25;14.15;;;9.68;;
22064;SDS011;11197;53.110;8.468;2023-11-21T08:42:51;13.68;;;9.07;;
22064;SDS011;11197;53.110;8.468;2023-11-21T08:45:18;16.50;;;9.25;;
22064;SDS011;11197;53.110;8.468;2023-11-21T08:47:44;14.38;;;9.45;;
22064;SDS011;11197;53.110;8.468;2023-11-21T08:50:10;14.77;;;9.52;;
22064;SDS011;11197;53.110;8.468;2023-11-21T08:52:40;17.77;;;9.73;;
22064;SDS011;11197;53.110;8.468;2023-11-21T08:55:07;13.85;;;9.63;;
22064;SDS011;11197;53.110;8.468;2023-11-21T08:57:34;13.77;;;9.80;;
22064;SDS011;11197;53.110;8.468;2023-11-21T09:00:01;13.32;;;9.70;;
22064;SDS011;11197;53.110;8.468;2023-11-21T09:02:33;14.93;;;10.15;;
22064;SDS011;11197;53.110;8.468;2023-11-21T09:04:59;15.23;;;10.52;;
22064;SDS011;11197;53.110;8.468;2023-11-21T09:07:28;13.45;;;9.45;;
22064;SDS011;11197;53.110;8.468;2023-11-21T09:09:54;13.93;;;9.63;;
22064;SDS011;11197;53.110;8.468;2023-11-21T09:12:20;13.10;;;9.20;;
22064;SDS011;11197;53.110;8.468;2023-11-21T09:14:46;13.77;;;9.82;;
22064;SDS011;11197;53.110;8.468;2023-11-21T09:17:12;12.95;;;9.43;;
22064;SDS011;11197;53.110;8.468;2023-11-21T09:19:42;12.38;;;9.00;;
22064;SDS011;11197;53.110;8.468;2023-11-21T09:22:17;13.63;;;9.25;;
22064;SDS011;11197;53.110;8.468;2023-11-21T09:24:43;12.65;;;8.48;;
22064;SDS011;11197;53.110;8.468;2023-11-21T09:27:09;13.05;;;8.38;;
22064;SDS011;11197;53.110;8.468;2023-11-21T09:29:35;12.65;;;8.80;;
22064;SDS011;11197;53.110;8.468;2023-11-21T09:32:03;14.07;;;9.07;;
22064;SDS011;11197;53.110;8.468;2023-11-21T09:34:33;12.27;;;8.93;;
22064;SDS011;11197;53.110;8.468;2023-11-21T09:37:04;12.95;;;8.82;;
22064;SDS011;11197;53.110;8.468;2023-11-21T09:39:32;12.93;;;9.25;;
22064;SDS011;11197;53.110;8.468;2023-11-21T09:42:04;13.35;;;8.80;;
22064;SDS011;11197;53.110;8.468;2023-11-21T09:47:24;13.70;;;8.65;;
22064;SDS011;11197;53.110;8.468;2023-11-21T09:49:50;11.55;;;7.95;;
22064;SDS011;11197;53.110;8.468;2023-11-21T09:52:25;13.23;;;8.52;;
22064;SDS011;11197;53.110;8.468;2023-11-21T09:57:21;10.55;;;7.78;;
22064;SDS011;11197;53.110;8.468;2023-11-21T09:59:52;12.10;;;8.23;;
22064;SDS011;11197;53.110;8.468;2023-11-21T10:02:31;12.82;;;8.07;;
22064;SDS011;11197;53.110;8.468;2023-11-21T10:05:01;12.40;;;8.50;;
22064;SDS011;11197;53.110;8.468;2023-11-21T10:07:28;10.80;;;7.97;;
22064;SDS011;11197;53.110;8.468;2023-11-21T10:09:57;13.98;;;8.60;;
22064;SDS011;11197;53.110;8.468;2023-11-21T10:12:24;13.23;;;8.00;;
22064;SDS011;11197;53.110;8.468;2023-11-21T10:14:53;12.70;;;8.23;;
22064;SDS011;11197;53.110;8.468;2023-11-21T10:17:24;12.32;;;8.13;;
22064;SDS011;11197;53.110;8.468;2023-11-21T10:19:55;12.20;;;8.38;;
22064;SDS011;11197;53.110;8.468;2023-11-21T10:22:23;14.25;;;8.23;;
22064;SDS011;11197;53.110;8.468;2023-11-21T10:24:49;13.15;;;8.15;;
22064;SDS011;11197;53.110;8.468;2023-11-21T10:27:16;12.10;;;8.80;;
22064;SDS011;11197;53.110;8.468;2023-11-21T10:29:42;12.88;;;8.43;;
22064;SDS011;11197;53.110;8.468;2023-11-21T10:32:08;11.77;;;8.32;;
22064;SDS011;11197;53.110;8.468;2023-11-21T10:34:35;12.35;;;8.32;;
22064;SDS011;11197;53.110;8.468;2023-11-21T10:37:10;11.10;;;7.95;;
22064;SDS011;11197;53.110;8.468;2023-11-21T10:39:38;12.40;;;8.20;;
22064;SDS011;11197;53.110;8.468;2023-11-21T10:42:07;11.68;;;8.45;;
22064;SDS011;11197;53.110;8.468;2023-11-21T10:44:35;11.25;;;7.90;;
22064;SDS011;11197;53.110;8.468;2023-11-21T10:47:01;12.50;;;8.50;;
22064;SDS011;11197;53.110;8.468;2023-11-21T10:49:28;10.45;;;7.72;;
22064;SDS011;11197;53.110;8.468;2023-11-21T10:51:55;12.40;;;8.35;;
22064;SDS011;11197;53.110;8.468;2023-11-21T10:54:22;13.23;;;8.90;;
22064;SDS011;11197;53.110;8.468;2023-11-21T10:56:51;12.13;;;8.85;;
22064;SDS011;11197;53.110;8.468;2023-11-21T10:59:22;14.95;;;9.07;;
22064;SDS011;11197;53.110;8.468;2023-11-21T11:01:51;13.40;;;9.48;;
22064;SDS011;11197;53.110;8.468;2023-11-21T11:04:20;13.20;;;9.00;;
22064;SDS011;11197;53.110;8.468;2023-11-21T11:06:51;13.32;;;9.10;;
22064;SDS011;11197;53.110;8.468;2023-11-21T11:09:21;11.20;;;8.18;;
22064;SDS011;11197;53.110;8.468;2023-11-21T11:11:48;14.27;;;8.23;;
22064;SDS011;11197;53.110;8.468;2023-11-21T11:14:14;12.27;;;8.15;;
22064;SDS011;11197;53.110;8.468;2023-11-21T11:16:41;10.65;;;7.55;;
22064;SDS011;11197;53.110;8.468;2023-11-21T11:19:08;11.13;;;7.63;;
22064;SDS011;11197;53.110;8.468;2023-11-21T11:24:27;12.18;;;7.65;;
22064;SDS011;11197;53.110;8.468;2023-11-21T11:29:56;11.48;;;8.00;;
22064;SDS011;11197;53.110;8.468;2023-11-21T11:35:28;14.63;;;8.35;;
22064;SDS011;11197;53.110;8.468;2023-11-21T11:38:21;10.88;;;7.85;;
22064;SDS011;11197;53.110;8.468;2023-11-21T11:40:48;13.00;;;8.55;;
22064;SDS011;11197;53.110;8.468;2023-11-21T11:43:24;11.52;;;7.95;;
22064;SDS011;11197;53.110;8.468;2023-11-21T11:45:51;13.68;;;8.10;;
22064;SDS011;11197;53.110;8.468;2023-11-21T11:48:19;10.45;;;7.43;;
22064;SDS011;11197;53.110;8.468;2023-11-21T11:51:00;10.30;;;7.13;;
22064;SDS011;11197;53.110;8.468;2023-11-21T11:53:36;9.90;;;7.18;;
22064;SDS011;11197;53.110;8.468;2023-11-21T11:56:24;9.70;;;7.18;;
22064;SDS011;11197;53.110;8.468;2023-11-21T11:58:55;10.27;;;7.18;;
22064;SDS011;11197;53.110;8.468;2023-11-21T12:06:42;11.13;;;7.30;;
22064;SDS011;11197;53.110;8.468;2023-11-21T12:09:12;11.05;;;7.18;;
22064;SDS011;11197;53.110;8.468;2023-11-21T12:11:49;12.60;;;7.07;;
22064;SDS011;11197;53.110;8.468;2023-11-21T12:14:15;10.00;;;6.35;;
22064;SDS011;11197;53.110;8.468;2023-11-21T12:16:41;9.02;;;6.57;;
22064;SDS011;11197;53.110;8.468;2023-11-21T12:19:11;8.45;;;5.80;;
22064;SDS011;11197;53.110;8.468;2023-11-21T12:21:37;8.45;;;6.30;;
22064;SDS011;11197;53.110;8.468;2023-11-21T12:24:04;8.88;;;5.80;;
22064;SDS011;11197;53.110;8.468;2023-11-21T12:26:33;9.95;;;6.38;;
22064;SDS011;11197;53.110;8.468;2023-11-21T12:29:02;8.52;;;5.88;;
22064;SDS011;11197;53.110;8.468;2023-11-21T12:31:29;7.72;;;5.43;;
22064;SDS011;11197;53.110;8.468;2023-11-21T12:33:55;9.93;;;5.75;;
22064;SDS011;11197;53.110;8.468;2023-11-21T12:36:22;10.02;;;5.80;;
22064;SDS011;11197;53.110;8.468;2023-11-21T12:38:48;7.95;;;5.40;;
22064;SDS011;11197;53.110;8.468;2023-11-21T12:41:15;10.55;;;6.30;;
22064;SDS011;11197;53.110;8.468;2023-11-21T12:43:42;9.50;;;5.80;;
22064;SDS011;11197;53.110;8.468;2023-11-21T12:46:09;8.82;;;5.50;;
22064;SDS011;11197;53.110;8.468;2023-11-21T12:48:37;8.65;;;5.60;;
22064;SDS011;11197;53.110;8.468;2023-11-21T12:51:05;8.50;;;5.25;;
22064;SDS011;11197;53.110;8.468;2023-11-21T12:53:31;9.43;;;5.70;;
22064;SDS011;11197;53.110;8.468;2023-11-21T12:56:02;6.80;;;4.60;;
22064;SDS011;11197;53.110;8.468;2023-11-21T12:58:31;6.85;;;4.63;;
22064;SDS011;11197;53.110;8.468;2023-11-21T13:00:58;7.55;;;4.53;;
22064;SDS011;11197;53.110;8.468;2023-11-21T13:03:24;8.18;;;4.95;;
22064;SDS011;11197;53.110;8.468;2023-11-21T13:05:51;7.07;;;4.78;;
22064;SDS011;11197;53.110;8.468;2023-11-21T13:08:19;8.63;;;4.90;;
22064;SDS011;11197;53.110;8.468;2023-11-21T13:10:50;7.35;;;4.88;;
22064;SDS011;11197;53.110;8.468;2023-11-21T13:13:21;7.28;;;4.85;;
22064;SDS011;11197;53.110;8.468;2023-11-21T13:15:47;7.50;;;5.03;;
22064;SDS011;11197;53.110;8.468;2023-11-21T13:18:14;6.93;;;5.07;;
22064;SDS011;11197;53.110;8.468;2023-11-21T13:20:41;9.57;;;5.63;;
22064;SDS011;11197;53.110;8.468;2023-11-21T13:23:08;10.82;;;6.15;;
22064;SDS011;11197;53.110;8.468;2023-11-21T13:25:37;8.50;;;5.70;;
22064;SDS011;11197;53.110;8.468;2023-11-21T13:28:06;7.93;;;5.60;;
22064;SDS011;11197;53.110;8.468;2023-11-21T13:30:33;8.40;;;5.82;;
22064;SDS011;11197;53.110;8.468;2023-11-21T13:32:59;11.93;;;8.35;;
22064;SDS011;11197;53.110;8.468;2023-11-21T13:35:31;10.32;;;6.20;;
22064;SDS011;11197;53.110;8.468;2023-11-21T13:38:02;7.97;;;5.72;;
22064;SDS011;11197;53.110;8.468;2023-11-21T13:40:31;9.48;;;5.55;;
22064;SDS011;11197;53.110;8.468;2023-11-21T13:42:59;7.93;;;5.15;;
22064;SDS011;11197;53.110;8.468;2023-11-21T13:45:29;9.27;;;5.87;;
22064;SDS011;11197;53.110;8.468;2023-11-21T13:47:56;10.98;;;5.72;;
22064;SDS011;11197;53.110;8.468;2023-11-21T13:50:27;8.57;;;5.45;;
22064;SDS011;11197;53.110;8.468;2023-11-21T13:53:01;9.00;;;5.22;;
22064;SDS011;11197;53.110;8.468;2023-11-21T13:55:44;10.05;;;5.75;;
22064;SDS011;11197;53.110;8.468;2023-11-21T13:58:10;8.50;;;5.60;;
22064;SDS011;11197;53.110;8.468;2023-11-21T14:00:42;10.05;;;5.80;;
22064;SDS011;11197;53.110;8.468;2023-11-21T14:03:14;8.63;;;4.97;;
22064;SDS011;11197;53.110;8.468;2023-11-21T14:05:45;7.10;;;5.30;;
22064;SDS011;11197;53.110;8.468;2023-11-21T14:08:13;8.43;;;5.28;;
22064;SDS011;11197;53.110;8.468;2023-11-21T14:10:42;7.43;;;5.25;;
22064;SDS011;11197;53.110;8.468;2023-11-21T14:13:08;8.73;;;5.40;;
22064;SDS011;11197;53.110;8.468;2023-11-21T14:15:40;6.93;;;5.10;;
22064;SDS011;11197;53.110;8.468;2023-11-21T14:18:11;7.88;;;5.20;;
22064;SDS011;11197;53.110;8.468;2023-11-21T14:20:39;7.68;;;5.65;;
22064;SDS011;11197;53.110;8.468;2023-11-21T14:23:06;7.47;;;5.78;;
22064;SDS011;11197;53.110;8.468;2023-11-21T14:25:32;8.77;;;5.35;;
22064;SDS011;11197;53.110;8.468;2023-11-21T14:28:02;7.88;;;5.60;;
22064;SDS011;11197;53.110;8.468;2023-11-21T14:30:30;7.43;;;5.57;;
22064;SDS011;11197;53.110;8.468;2023-11-21T14:32:58;10.65;;;5.80;;
22064;SDS011;11197;53.110;8.468;2023-11-21T14:35:24;8.50;;;5.55;;
22064;SDS011;11197;53.110;8.468;2023-11-21T14:37:50;9.65;;;5.45;;
22064;SDS011;11197;53.110;8.468;2023-11-21T14:40:16;9.55;;;5.28;;
22064;SDS011;11197;53.110;8.468;2023-11-21T14:42:42;6.18;;;4.43;;
22064;SDS011;11197;53.110;8.468;2023-11-21T14:45:12;5.55;;;3.75;;
22064;SDS011;11197;53.110;8.468;2023-11-21T14:47:40;7.13;;;3.85;;
22064;SDS011;11197;53.110;8.468;2023-11-21T14:50:10;4.88;;;3.38;;
22064;SDS011;11197;53.110;8.468;2023-11-21T14:52:54;4.38;;;3.10;;
22064;SDS011;11197;53.110;8.468;2023-11-21T14:55:24;4.70;;;2.90;;
22064;SDS011;11197;53.110;8.468;2023-11-21T14:58:05;3.63;;;2.80;;
22064;SDS011;11197;53.110;8.468;2023-11-21T15:00:30;4.20;;;2.90;;